Lincoln, KS

7:12 AM CST on December 18, 2014 (GMT -0600)
Center Township | Change Station
CLOSE
Current Station
Personal Weather Station
Location: BELOIT, KS
Elevation: 1504 ft
Nearby Weather Stations
Active Advisory: Winter Weather Advisory Active Notice: Public Information Statement

Elev 1504 ft 39.33 °N, 98.15 °W | Updated 3 seconds ago

Overcast
Overcast
25.2 °F
Feels Like 25 °F
N
1.0
Wind Variable Wind from NNW
Gusts 3.0 mph

Today
High -- | Low -- °F
--% Chance of Precip.
Yesterday
High -- | Low -- °F
Precip. -- in
7:46 AM 5:12 PM
Waning Crescent, 14% visible
Pressure 30.23 in
Visibility 4.0 miles
Clouds Mostly Cloudy 500 ft
Overcast 2200 ft
Windchill 25 °F
Dew Point 24 °F
Humidity 95%
Rainfall 0.00 in
Snow Depth Not available.
UV 0 out of 12
Pollen .10 out of 12
Air Quality Not available.
Flu Activity Not available.
METAR KSLN 181253Z 04004KT 4SM -SN BR BKN005 OVC022 M02/M03 A3019 RMK AO2 SLP236 P0000 T10221033

More Conditions Fewer Conditions

Pressure 30.23 in
Visibility 4.0 miles
Clouds Mostly Cloudy 500 ft
Overcast 2200 ft
Windchill 25 °F
Dew Point 24 °F
Humidity 95%
Rainfall 0.00 in
Snow Depth Not available.
UV 0 out of 12
Pollen .10 out of 12
Air Quality Not available.
Flu Activity Not available.
METAR KSLN 181253Z 04004KT 4SM -SN BR BKN005 OVC022 M02/M03 A3019 RMK AO2 SLP236 P0000 T10221033

More Conditions Fewer Conditions

10-Day Weather Forecast

Almanac

Astronomy

Dec. 18, 2014 Rise Set
Actual Time
Civil Twilight
Nautical Twilight
Astronomical Twilight
Moon
Length of Visible Light
Length of Day
Tomorrow will be .
, % of the Moon is Illuminated

Today's Extremes

State Highs State Lows

Community

WunderPhotos

Upload Photos

1,778,925 photos uploaded!

WunderBlogs® & News

Nearby

Air Quality

  Air Quality AQ Index Pollutant
Not available.

Snow Depth

Station Depth Elevation

Earthquake Activity

City Distance Mag. Time & Date
Minimum magnitude displayed is 2.5.

Coastal Water Temperatures

Place Temperature

Nearby Weather Stations